Airfield :
LOGIN :

Register | Disclaimer

   EN    FR    IT 

 










Legend :    VFR   Marginal VFR   IFR   Intensive IFR   Very Intensive IFR
Visi :
Ceiling :
>= 8 km
>= 3000ft
5 to 8 km
1000 to 3000 ft
1500m to 5 km
500 to 1000 ft
800 to 1500m
200 to 500 ft
< 800m
< 200 ft
Symbols :   Thunderstorms  Fog  Heavy snow  Heavy precipitations  Wind > 20 kt
SIGMETs :     Misc.  Thunderstorms  Icing  Turbulence  Mountain Waves  Volcanic Ashes






- Airport Elevation : -13 ft
- IATA code : LEY


EHLE - Lelystad

CURRENT METAR :
  • 270155Z AUTO 24005KT 4700 BR OVC030 17/16 Q1010

EXPIRED METARs :
  • 270125Z AUTO 24007KT 6000 -RA BKN026 OVC030 17/16 Q1010 RERA REDZ
  • 270055Z AUTO 25008KT 9999 FEW015CB SCT021 17/16 Q1010 REDZ
  • 270025Z AUTO 21007KT 170V240 4200 -RA FEW005 SCT010 BKN012 FEW015CB 18/17 Q1010 RERAUPRA
  • 262355Z AUTO 21007KT 3800 -RA SCT011 BKN014 FEW015CB BKN017 18/17 Q1010 RERA REDZ
  • 262325Z AUTO 21006KT 4700 BR SCT015 BKN020 OVC024 18/17 Q1010

TAF TAF EHLE
Valid from the 27 at 00:00 until the 28 at 06:00 UTC


262258Z 2700/2806 26008KT 7000 BKN015
TEMPO 2700/2702 4000 SHRA BKN012 SCT018CB
BECMG 2701/2703 20007KT 9999 SCT040
PROB30
TEMPO 2705/2709 5000 BR BKN006
TEMPO 2711/2724 6000 SHRA SCT020CB
PROB30
TEMPO 2712/2722 22018KT 4000 TSRA SCT018CB BKN020



MET'MAP, your aeronautical weather chart ! - Copyright ORBIFLY December 2007 - Disclaimer

ORBIFLY MET'MAP TEAM :

Programming & Development : Alexandra Zaïnal
Concept & original design : Baudouin d'Aumeries
Assistance for programming : Marc-Olivier Méhu
Technical & hardware support : Manuel Goepfert

Contact : metmap@orbifly.com




SOURCES & CREDITS :

   NOAA